KOSC/OSC METAR and TAF weather

Enter ICAO airport designator
Station Type Date Time Source
KOSC METAR 2022/07/01 01:15 UTC NOAA

KOSC 010115Z AUTO 21012G16KT 10SM CLR 28/14 A2985 RMK AO2 T02770141


Station Type Date Time Source
KOSC Decoded METAR 2022/07/01 01:15 UTC NOAA

Oscoda, Oscoda-Wurtsmith Airport, MI, United States (KOSC) 44-27N 083-22W
Jun 30, 2022 - 09:15 PM EDT / 2022.07.01 0115 UTC
Wind: from the SSW (210 degrees) at 14 MPH (12 KT) gusting to 18 MPH (16 KT):0
Visibility: 10 mile(s):0
Sky conditions: clear
Temperature: 81.9 F (27.7 C)
Dew Point: 57.4 F (14.1 C)
Relative Humidity: 43%
Pressure (altimeter): 29.85 in. Hg (1010 hPa)
ob: KOSC 010115Z AUTO 21012G16KT 10SM CLR 28/14 A2985 RMK AO2 T02770141
cycle: 1

Station Type Date Time Source
KOSC TAF UTC NOAA

Error!

Example: see airport list